MMVA/VSA METAR and TAF weather

Enter ICAO airport designator
Station Type Date Time Source
MMVA METAR 2020/02/27 12:40 UTC NOAA

MMVA 271240Z 00000KT 1SM DZ BR BKN008 OVC010 17/17 A3032 RMK 8/6// SC DZB39


Station Type Date Time Source
MMVA Decoded METAR 2020/02/27 12:40 UTC NOAA

Villahermosa , Mexico (MMVA) 18-00N 092-49W
Feb 27, 2020 - 07:40 AM EST / 2020.02.27 1240 UTC
Wind: Calm:0
Visibility: 1 mile(s):0
Sky conditions: overcast
Weather: drizzle; mist
Temperature: 62 F (17 C)
Dew Point: 62 F (17 C)
Relative Humidity: 100%
Pressure (altimeter): 30.32 in. Hg (1026 hPa)
ob: MMVA 271240Z 00000KT 1SM DZ BR BKN008 OVC010 17/17 A3032 RMK 8/6// SC DZB39
cycle: 12

Station Type Date Time Source
MMVA TAF 2020/02/27 06:17 UTC NOAA

TAF MMVA 270512Z 2706/2806 32015G25KT 3SM DZ OVC007
TEMPO 2710/2714 1SM DZ BR OVC005
FM271600 32010G20KT 5SM HZ BKN010 OVC050
FM271800 33015KT 6SM HZ BKN015 BKN050
TEMPO 2721/2801 4SM -RA

Example: see airport list